| Date | Time | Temp. (oF) | Dew Point (oF) | Rel. Hum. (%) | Press. (in.) | Wind Dir. (deg.) | Wind Speed (mph) | Hourly Rainfall (i n.) |
|
|---|---|---|---|---|---|---|---|---|---|
| 1 | 05/26 | 24:00 | 57 | 38 | 50 | 29.98 | 230 | 2 | 0.00 |
| 2 | 05/25 | 23:00 | 56 | 40 | 57 | 29.98 | 330 | 0 | 0.00 |
| 3 | 05/25 | 22:00 | 57 | 40 | 54 | 29.97 | 330 | 0 | 0.00 |
| 4 | 05/25 | 21:00 | 61 | 39 | 46 | 29.93 | 330 | 0 | 0.00 |
| 5 | 05/25 | 20:00 | 64 | 38 | 39 | 29.91 | 330 | 1 | 0.00 |
| 6 | 05/25 | 19:00 | 66 | 38 | 37 | 29.89 | 280 | 2 | 0.00 |
| 7 | 05/25 | 18:00 | 68 | 37 | 33 | 29.91 | 290 | 10 | 0.00 |
| 8 | 05/25 | 17:00 | 68 | 39 | 36 | 29.91 | 310 | 10 | 0.00 |
| 9 | 05/25 | 16:00 | 69 | 39 | 35 | 29.88 | 320 | 7 | 0.00 |
| 10 | 05/25 | 15:00 | 67 | 39 | 37 | 29.88 | 300 | 6 | 0.00 |
| 11 | 05/25 | 14:00 | 69 | 41 | 37 | 29.89 | 290 | 7 | 0.00 |
| 12 | 05/25 | 13:00 | 68 | 43 | 41 | 29.89 | 250 | 7 | 0.00 |
| 13 | 05/25 | 12:00 | 68 | 43 | 42 | 29.90 | 230 | 4 | 0.00 |
| 14 | 05/25 | 11:00 | 64 | 42 | 45 | 29.89 | 270 | 11 | 0.00 |
| 15 | 05/25 | 10:00 | 63 | 43 | 50 | 29.87 | 220 | 6 | 0.00 |
| 16 | 05/25 | 09:00 | 58 | 42 | 57 | 29.86 | 270 | 4 | 0.00 |
| 17 | 05/25 | 08:00 | 54 | 44 | 70 | 29.85 | 140 | 2 | 0.00 |
| 18 | 05/25 | 07:00 | 51 | 43 | 76 | 29.87 | 310 | 1 | 0.00 |
| 19 | 05/25 | 06:00 | 52 | 43 | 73 | 29.87 | 310 | 0 | 0.00 |
| 20 | 05/25 | 05:00 | 53 | 44 | 72 | 29.86 | 100 | 4 | 0.00 |
| 21 | 05/25 | 04:00 | 52 | 42 | 70 | 29.85 | 250 | 0 | 0.00 |
| 22 | 05/25 | 03:00 | 52 | 42 | 70 | 29.85 | 230 | 4 | 0.00 |
| 23 | 05/25 | 02:00 | 53 | 43 | 70 | 29.84 | 230 | 1 | 0.00 |
| 24 | 05/25 | 01:00 | 54 | 44 | 69 | 29.84 | 300 | 2 | 0.00 |